sensor_id;sensor_type;location;lat;lon;timestamp;temperature;humidity
2579;DHT22;1299;48.282;14.398;2023-02-15T00:00:09;1.40;99.90
2579;DHT22;1299;48.282;14.398;2023-02-15T00:02:37;1.40;99.90
2579;DHT22;1299;48.282;14.398;2023-02-15T00:05:05;1.50;99.90
2579;DHT22;1299;48.282;14.398;2023-02-15T00:07:33;1.50;99.90
2579;DHT22;1299;48.282;14.398;2023-02-15T00:10:01;1.60;99.90
2579;DHT22;1299;48.282;14.398;2023-02-15T00:12:28;1.60;99.90
2579;DHT22;1299;48.282;14.398;2023-02-15T00:14:56;1.50;99.90
2579;DHT22;1299;48.282;14.398;2023-02-15T00:17:27;1.30;99.90
2579;DHT22;1299;48.282;14.398;2023-02-15T00:19:54;1.30;99.90
2579;DHT22;1299;48.282;14.398;2023-02-15T00:22:21;1.40;99.90
2579;DHT22;1299;48.282;14.398;2023-02-15T00:24:49;1.50;99.90
2579;DHT22;1299;48.282;14.398;2023-02-15T00:27:17;1.50;99.90
2579;DHT22;1299;48.282;14.398;2023-02-15T00:29:44;1.40;99.90
2579;DHT22;1299;48.282;14.398;2023-02-15T00:32:11;1.40;99.90
2579;DHT22;1299;48.282;14.398;2023-02-15T00:34:40;1.50;99.90
2579;DHT22;1299;48.282;14.398;2023-02-15T00:37:09;1.40;99.90
2579;DHT22;1299;48.282;14.398;2023-02-15T00:39:36;1.40;99.90
2579;DHT22;1299;48.282;14.398;2023-02-15T00:42:04;1.50;99.90
2579;DHT22;1299;48.282;14.398;2023-02-15T00:44:34;1.40;99.90
2579;DHT22;1299;48.282;14.398;2023-02-15T00:47:02;1.60;99.90
2579;DHT22;1299;48.282;14.398;2023-02-15T00:49:29;1.50;99.90
2579;DHT22;1299;48.282;14.398;2023-02-15T00:51:58;1.60;99.90
2579;DHT22;1299;48.282;14.398;2023-02-15T00:54:26;1.70;99.90
2579;DHT22;1299;48.282;14.398;2023-02-15T00:56:53;1.60;99.90
2579;DHT22;1299;48.282;14.398;2023-02-15T00:59:21;1.70;99.90
2579;DHT22;1299;48.282;14.398;2023-02-15T01:01:48;1.60;99.90
2579;DHT22;1299;48.282;14.398;2023-02-15T01:04:16;1.50;99.90
2579;DHT22;1299;48.282;14.398;2023-02-15T01:06:43;1.50;99.90
2579;DHT22;1299;48.282;14.398;2023-02-15T01:09:12;1.40;99.90
2579;DHT22;1299;48.282;14.398;2023-02-15T01:11:39;1.40;99.90
2579;DHT22;1299;48.282;14.398;2023-02-15T01:14:07;1.50;99.90
2579;DHT22;1299;48.282;14.398;2023-02-15T01:16:34;1.40;99.90
2579;DHT22;1299;48.282;14.398;2023-02-15T01:19:02;1.60;99.90
2579;DHT22;1299;48.282;14.398;2023-02-15T01:21:29;1.60;99.90
2579;DHT22;1299;48.282;14.398;2023-02-15T01:24:00;1.70;99.90
2579;DHT22;1299;48.282;14.398;2023-02-15T01:26:29;1.70;99.90
2579;DHT22;1299;48.282;14.398;2023-02-15T01:28:57;1.80;99.90
2579;DHT22;1299;48.282;14.398;2023-02-15T01:31:25;1.90;99.90
2579;DHT22;1299;48.282;14.398;2023-02-15T01:33:53;2.00;99.90
2579;DHT22;1299;48.282;14.398;2023-02-15T01:36:20;2.00;99.90
2579;DHT22;1299;48.282;14.398;2023-02-15T01:38:48;2.10;99.90
2579;DHT22;1299;48.282;14.398;2023-02-15T01:41:15;2.10;99.90
2579;DHT22;1299;48.282;14.398;2023-02-15T01:43:56;2.10;99.90
2579;DHT22;1299;48.282;14.398;2023-02-15T01:46:30;2.10;99.90
2579;DHT22;1299;48.282;14.398;2023-02-15T01:49:03;2.10;99.90
2579;DHT22;1299;48.282;14.398;2023-02-15T01:51:35;2.20;99.90
2579;DHT22;1299;48.282;14.398;2023-02-15T01:54:09;2.20;99.90
2579;DHT22;1299;48.282;14.398;2023-02-15T01:56:40;2.20;99.90
2579;DHT22;1299;48.282;14.398;2023-02-15T01:59:13;2.20;99.90
2579;DHT22;1299;48.282;14.398;2023-02-15T02:01:42;2.30;99.90
2579;DHT22;1299;48.282;14.398;2023-02-15T02:04:15;2.30;99.90
2579;DHT22;1299;48.282;14.398;2023-02-15T02:06:45;2.30;99.90
2579;DHT22;1299;48.282;14.398;2023-02-15T02:09:13;2.30;99.90
2579;DHT22;1299;48.282;14.398;2023-02-15T02:11:41;2.30;99.90
2579;DHT22;1299;48.282;14.398;2023-02-15T02:14:13;2.20;99.90
2579;DHT22;1299;48.282;14.398;2023-02-15T02:16:47;2.20;99.90
2579;DHT22;1299;48.282;14.398;2023-02-15T02:19:45;2.10;99.90
2579;DHT22;1299;48.282;14.398;2023-02-15T02:29:32;2.00;99.90
2579;DHT22;1299;48.282;14.398;2023-02-15T02:35:30;1.80;99.90
2579;DHT22;1299;48.282;14.398;2023-02-15T02:38:06;1.80;99.90
2579;DHT22;1299;48.282;14.398;2023-02-15T02:40:44;1.70;99.90
2579;DHT22;1299;48.282;14.398;2023-02-15T02:43:21;1.80;99.90
2579;DHT22;1299;48.282;14.398;2023-02-15T02:45:54;1.80;99.90
2579;DHT22;1299;48.282;14.398;2023-02-15T02:48:27;1.60;99.90
2579;DHT22;1299;48.282;14.398;2023-02-15T02:50:58;1.60;99.90
2579;DHT22;1299;48.282;14.398;2023-02-15T02:53:27;1.50;99.90
2579;DHT22;1299;48.282;14.398;2023-02-15T02:56:01;1.40;99.90
2579;DHT22;1299;48.282;14.398;2023-02-15T02:58:36;1.40;99.90
2579;DHT22;1299;48.282;14.398;2023-02-15T03:01:09;1.50;99.90
2579;DHT22;1299;48.282;14.398;2023-02-15T03:03:42;1.50;99.90
2579;DHT22;1299;48.282;14.398;2023-02-15T03:06:15;1.60;99.90
2579;DHT22;1299;48.282;14.398;2023-02-15T03:08:48;1.70;99.90
2579;DHT22;1299;48.282;14.398;2023-02-15T03:11:17;1.70;99.90
2579;DHT22;1299;48.282;14.398;2023-02-15T03:13:46;1.60;99.90
2579;DHT22;1299;48.282;14.398;2023-02-15T03:16:15;1.60;99.90
2579;DHT22;1299;48.282;14.398;2023-02-15T03:18:57;1.70;99.90
2579;DHT22;1299;48.282;14.398;2023-02-15T03:21:34;1.60;99.90
2579;DHT22;1299;48.282;14.398;2023-02-15T03:24:08;1.50;99.90
2579;DHT22;1299;48.282;14.398;2023-02-15T03:26:39;1.40;99.90
2579;DHT22;1299;48.282;14.398;2023-02-15T03:29:08;1.40;99.90
2579;DHT22;1299;48.282;14.398;2023-02-15T03:31:40;1.50;99.90
2579;DHT22;1299;48.282;14.398;2023-02-15T03:34:11;1.50;99.90
2579;DHT22;1299;48.282;14.398;2023-02-15T03:36:45;1.60;99.90
2579;DHT22;1299;48.282;14.398;2023-02-15T03:39:19;1.50;99.90
2579;DHT22;1299;48.282;14.398;2023-02-15T03:41:54;1.60;99.90
2579;DHT22;1299;48.282;14.398;2023-02-15T03:44:27;1.60;99.90
2579;DHT22;1299;48.282;14.398;2023-02-15T03:47:02;1.70;99.90
2579;DHT22;1299;48.282;14.398;2023-02-15T03:49:39;1.70;99.90
2579;DHT22;1299;48.282;14.398;2023-02-15T03:52:11;1.70;99.90
2579;DHT22;1299;48.282;14.398;2023-02-15T03:54:41;1.60;99.90
2579;DHT22;1299;48.282;14.398;2023-02-15T03:57:17;1.70;99.90
2579;DHT22;1299;48.282;14.398;2023-02-15T04:00:08;1.60;99.90
2579;DHT22;1299;48.282;14.398;2023-02-15T04:03:09;1.50;99.90
2579;DHT22;1299;48.282;14.398;2023-02-15T04:05:38;1.60;99.90
2579;DHT22;1299;48.282;14.398;2023-02-15T04:08:07;1.70;99.90
2579;DHT22;1299;48.282;14.398;2023-02-15T04:10:34;1.70;99.90
2579;DHT22;1299;48.282;14.398;2023-02-15T04:13:19;1.80;99.90
2579;DHT22;1299;48.282;14.398;2023-02-15T04:15:47;1.80;99.90
2579;DHT22;1299;48.282;14.398;2023-02-15T04:18:33;1.90;99.90
2579;DHT22;1299;48.282;14.398;2023-02-15T04:21:20;2.00;99.90
2579;DHT22;1299;48.282;14.398;2023-02-15T04:24:07;1.80;99.90
2579;DHT22;1299;48.282;14.398;2023-02-15T04:26:52;1.70;99.90
2579;DHT22;1299;48.282;14.398;2023-02-15T04:29:21;1.70;99.90
2579;DHT22;1299;48.282;14.398;2023-02-15T04:31:49;1.60;99.90
2579;DHT22;1299;48.282;14.398;2023-02-15T04:34:16;1.60;99.90
2579;DHT22;1299;48.282;14.398;2023-02-15T04:36:44;1.80;99.90
2579;DHT22;1299;48.282;14.398;2023-02-15T04:39:15;1.70;99.90
2579;DHT22;1299;48.282;14.398;2023-02-15T04:41:44;1.80;99.90
2579;DHT22;1299;48.282;14.398;2023-02-15T04:44:11;1.80;99.90
2579;DHT22;1299;48.282;14.398;2023-02-15T04:46:39;1.80;99.90
2579;DHT22;1299;48.282;14.398;2023-02-15T04:49:07;2.00;99.90
2579;DHT22;1299;48.282;14.398;2023-02-15T04:51:35;2.10;99.90
2579;DHT22;1299;48.282;14.398;2023-02-15T04:54:03;2.10;99.90
2579;DHT22;1299;48.282;14.398;2023-02-15T04:56:32;2.00;99.90
2579;DHT22;1299;48.282;14.398;2023-02-15T04:59:00;2.00;99.90
2579;DHT22;1299;48.282;14.398;2023-02-15T05:01:28;1.80;99.90
2579;DHT22;1299;48.282;14.398;2023-02-15T05:03:55;1.80;99.90
2579;DHT22;1299;48.282;14.398;2023-02-15T05:06:23;1.80;99.90
2579;DHT22;1299;48.282;14.398;2023-02-15T05:08:50;1.70;99.90
2579;DHT22;1299;48.282;14.398;2023-02-15T05:11:18;1.90;99.90
2579;DHT22;1299;48.282;14.398;2023-02-15T05:13:47;2.00;99.90
2579;DHT22;1299;48.282;14.398;2023-02-15T05:16:15;1.90;99.90
2579;DHT22;1299;48.282;14.398;2023-02-15T05:18:42;1.90;99.90
2579;DHT22;1299;48.282;14.398;2023-02-15T05:21:10;2.10;99.90
2579;DHT22;1299;48.282;14.398;2023-02-15T05:23:39;2.10;99.90
2579;DHT22;1299;48.282;14.398;2023-02-15T05:26:07;2.20;99.90
2579;DHT22;1299;48.282;14.398;2023-02-15T05:28:54;2.10;99.90
2579;DHT22;1299;48.282;14.398;2023-02-15T05:31:22;2.20;99.90
2579;DHT22;1299;48.282;14.398;2023-02-15T05:33:49;2.20;99.90
2579;DHT22;1299;48.282;14.398;2023-02-15T05:36:17;2.20;99.90
2579;DHT22;1299;48.282;14.398;2023-02-15T05:38:44;2.30;99.90
2579;DHT22;1299;48.282;14.398;2023-02-15T05:41:12;2.30;99.90
2579;DHT22;1299;48.282;14.398;2023-02-15T05:43:40;2.30;99.90
2579;DHT22;1299;48.282;14.398;2023-02-15T05:46:09;2.30;99.90
2579;DHT22;1299;48.282;14.398;2023-02-15T05:48:37;2.40;99.90
2579;DHT22;1299;48.282;14.398;2023-02-15T05:51:05;2.40;99.90
2579;DHT22;1299;48.282;14.398;2023-02-15T05:53:35;2.40;99.90
2579;DHT22;1299;48.282;14.398;2023-02-15T05:56:05;2.50;99.90
2579;DHT22;1299;48.282;14.398;2023-02-15T05:58:35;2.50;99.90
2579;DHT22;1299;48.282;14.398;2023-02-15T06:01:09;2.30;99.90
2579;DHT22;1299;48.282;14.398;2023-02-15T06:03:37;2.40;99.90
2579;DHT22;1299;48.282;14.398;2023-02-15T06:06:05;2.50;99.90
2579;DHT22;1299;48.282;14.398;2023-02-15T06:08:33;2.50;99.90
2579;DHT22;1299;48.282;14.398;2023-02-15T06:11:01;2.40;99.90
2579;DHT22;1299;48.282;14.398;2023-02-15T06:13:30;2.50;99.90
2579;DHT22;1299;48.282;14.398;2023-02-15T06:15:57;2.60;99.90
2579;DHT22;1299;48.282;14.398;2023-02-15T06:18:26;2.60;99.90
2579;DHT22;1299;48.282;14.398;2023-02-15T06:20:54;2.50;99.90
2579;DHT22;1299;48.282;14.398;2023-02-15T06:23:21;2.60;99.90
2579;DHT22;1299;48.282;14.398;2023-02-15T06:25:49;2.60;99.90
2579;DHT22;1299;48.282;14.398;2023-02-15T06:28:16;2.60;99.90
2579;DHT22;1299;48.282;14.398;2023-02-15T06:30:44;2.70;99.90
2579;DHT22;1299;48.282;14.398;2023-02-15T06:33:11;2.60;99.90
2579;DHT22;1299;48.282;14.398;2023-02-15T06:35:40;2.40;99.90
2579;DHT22;1299;48.282;14.398;2023-02-15T06:38:08;2.50;99.90
2579;DHT22;1299;48.282;14.398;2023-02-15T06:40:35;2.60;99.90
2579;DHT22;1299;48.282;14.398;2023-02-15T06:43:03;2.50;99.90
2579;DHT22;1299;48.282;14.398;2023-02-15T06:45:30;2.50;99.90
2579;DHT22;1299;48.282;14.398;2023-02-15T06:47:58;2.60;99.90
2579;DHT22;1299;48.282;14.398;2023-02-15T06:50:25;2.70;99.90
2579;DHT22;1299;48.282;14.398;2023-02-15T06:52:57;2.80;99.90
2579;DHT22;1299;48.282;14.398;2023-02-15T06:55:25;2.80;99.90
2579;DHT22;1299;48.282;14.398;2023-02-15T06:57:53;2.70;99.90
2579;DHT22;1299;48.282;14.398;2023-02-15T07:00:21;2.80;99.90
2579;DHT22;1299;48.282;14.398;2023-02-15T07:02:53;2.80;99.90
2579;DHT22;1299;48.282;14.398;2023-02-15T07:05:23;2.80;99.90
2579;DHT22;1299;48.282;14.398;2023-02-15T07:07:58;2.60;99.90
2579;DHT22;1299;48.282;14.398;2023-02-15T07:10:26;2.40;99.90
2579;DHT22;1299;48.282;14.398;2023-02-15T07:12:53;2.30;99.90
2579;DHT22;1299;48.282;14.398;2023-02-15T07:15:20;2.30;99.90
2579;DHT22;1299;48.282;14.398;2023-02-15T07:17:48;2.20;99.90
2579;DHT22;1299;48.282;14.398;2023-02-15T07:20:17;2.20;99.90
2579;DHT22;1299;48.282;14.398;2023-02-15T07:22:46;2.20;99.90
2579;DHT22;1299;48.282;14.398;2023-02-15T07:25:15;2.10;99.90
2579;DHT22;1299;48.282;14.398;2023-02-15T07:27:42;2.10;99.90
2579;DHT22;1299;48.282;14.398;2023-02-15T07:30:12;2.00;99.90
2579;DHT22;1299;48.282;14.398;2023-02-15T07:32:43;2.00;99.90
2579;DHT22;1299;48.282;14.398;2023-02-15T07:35:28;2.00;99.90
2579;DHT22;1299;48.282;14.398;2023-02-15T07:37:55;1.80;99.90
2579;DHT22;1299;48.282;14.398;2023-02-15T07:40:24;1.90;99.90
2579;DHT22;1299;48.282;14.398;2023-02-15T07:42:52;1.90;99.90
2579;DHT22;1299;48.282;14.398;2023-02-15T07:45:21;1.90;99.90
2579;DHT22;1299;48.282;14.398;2023-02-15T07:47:48;2.10;99.90
2579;DHT22;1299;48.282;14.398;2023-02-15T07:50:16;2.10;99.90
2579;DHT22;1299;48.282;14.398;2023-02-15T07:52:44;2.10;99.90
2579;DHT22;1299;48.282;14.398;2023-02-15T07:55:11;2.10;99.90
2579;DHT22;1299;48.282;14.398;2023-02-15T07:57:44;2.00;99.90
2579;DHT22;1299;48.282;14.398;2023-02-15T08:00:13;1.90;99.90
2579;DHT22;1299;48.282;14.398;2023-02-15T08:02:41;2.10;99.90
2579;DHT22;1299;48.282;14.398;2023-02-15T08:05:08;2.10;99.90
2579;DHT22;1299;48.282;14.398;2023-02-15T08:07:36;2.20;99.90
2579;DHT22;1299;48.282;14.398;2023-02-15T08:10:04;2.10;99.90
2579;DHT22;1299;48.282;14.398;2023-02-15T08:12:31;2.10;99.90
2579;DHT22;1299;48.282;14.398;2023-02-15T08:15:00;2.30;99.90
2579;DHT22;1299;48.282;14.398;2023-02-15T08:17:28;2.30;99.90
2579;DHT22;1299;48.282;14.398;2023-02-15T08:19:55;2.30;99.90
2579;DHT22;1299;48.282;14.398;2023-02-15T08:22:23;2.30;99.90
2579;DHT22;1299;48.282;14.398;2023-02-15T08:24:52;2.40;99.90
2579;DHT22;1299;48.282;14.398;2023-02-15T08:27:20;2.30;99.90
2579;DHT22;1299;48.282;14.398;2023-02-15T08:29:52;2.20;99.90
2579;DHT22;1299;48.282;14.398;2023-02-15T08:32:21;2.40;99.90
2579;DHT22;1299;48.282;14.398;2023-02-15T08:34:49;2.30;99.90
2579;DHT22;1299;48.282;14.398;2023-02-15T08:37:16;2.30;99.90
2579;DHT22;1299;48.282;14.398;2023-02-15T08:39:43;2.40;99.90
2579;DHT22;1299;48.282;14.398;2023-02-15T08:42:11;2.60;99.90
2579;DHT22;1299;48.282;14.398;2023-02-15T08:44:39;2.70;99.90
2579;DHT22;1299;48.282;14.398;2023-02-15T08:47:07;2.70;99.90
2579;DHT22;1299;48.282;14.398;2023-02-15T08:49:36;2.80;99.90
2579;DHT22;1299;48.282;14.398;2023-02-15T08:52:04;2.70;99.90
2579;DHT22;1299;48.282;14.398;2023-02-15T08:54:31;2.60;99.90
2579;DHT22;1299;48.282;14.398;2023-02-15T08:56:59;2.50;99.90
2579;DHT22;1299;48.282;14.398;2023-02-15T08:59:26;2.80;99.90
2579;DHT22;1299;48.282;14.398;2023-02-15T09:01:54;2.60;99.90
2579;DHT22;1299;48.282;14.398;2023-02-15T09:04:21;2.60;99.90
2579;DHT22;1299;48.282;14.398;2023-02-15T09:06:51;2.70;99.90
2579;DHT22;1299;48.282;14.398;2023-02-15T09:09:19;2.90;99.90
2579;DHT22;1299;48.282;14.398;2023-02-15T09:11:48;2.80;99.90
2579;DHT22;1299;48.282;14.398;2023-02-15T09:14:18;2.80;99.90
2579;DHT22;1299;48.282;14.398;2023-02-15T09:16:47;2.30;99.90
2579;DHT22;1299;48.282;14.398;2023-02-15T09:19:18;2.20;99.90
2579;DHT22;1299;48.282;14.398;2023-02-15T09:21:46;2.10;99.90
2579;DHT22;1299;48.282;14.398;2023-02-15T09:24:15;2.00;99.90
2579;DHT22;1299;48.282;14.398;2023-02-15T09:26:44;2.00;99.90
2579;DHT22;1299;48.282;14.398;2023-02-15T09:29:14;1.70;99.90
2579;DHT22;1299;48.282;14.398;2023-02-15T09:31:43;1.50;99.90
2579;DHT22;1299;48.282;14.398;2023-02-15T09:34:11;1.60;99.90
2579;DHT22;1299;48.282;14.398;2023-02-15T09:36:40;1.50;99.90
2579;DHT22;1299;48.282;14.398;2023-02-15T09:39:10;1.60;99.90
2579;DHT22;1299;48.282;14.398;2023-02-15T09:42:04;1.50;99.90
2579;DHT22;1299;48.282;14.398;2023-02-15T09:50:41;1.40;99.90
2579;DHT22;1299;48.282;14.398;2023-02-15T09:53:37;1.50;99.90
2579;DHT22;1299;48.282;14.398;2023-02-15T09:56:15;1.60;99.90
2579;DHT22;1299;48.282;14.398;2023-02-15T09:58:57;1.50;99.90
2579;DHT22;1299;48.282;14.398;2023-02-15T10:01:33;1.30;99.90
2579;DHT22;1299;48.282;14.398;2023-02-15T10:04:17;1.40;99.90
2579;DHT22;1299;48.282;14.398;2023-02-15T10:06:55;1.40;99.90
2579;DHT22;1299;48.282;14.398;2023-02-15T10:12:42;1.50;99.90
2579;DHT22;1299;48.282;14.398;2023-02-15T10:15:34;1.60;99.90
2579;DHT22;1299;48.282;14.398;2023-02-15T10:18:20;1.60;99.90
2579;DHT22;1299;48.282;14.398;2023-02-15T10:20:56;1.60;99.90
2579;DHT22;1299;48.282;14.398;2023-02-15T10:23:43;1.80;99.90
2579;DHT22;1299;48.282;14.398;2023-02-15T10:26:18;1.60;99.90
2579;DHT22;1299;48.282;14.398;2023-02-15T10:28:49;1.70;99.90
2579;DHT22;1299;48.282;14.398;2023-02-15T10:31:24;1.70;99.90
2579;DHT22;1299;48.282;14.398;2023-02-15T10:34:12;1.50;99.90
2579;DHT22;1299;48.282;14.398;2023-02-15T10:37:03;1.70;99.90
2579;DHT22;1299;48.282;14.398;2023-02-15T10:39:40;1.50;99.90
2579;DHT22;1299;48.282;14.398;2023-02-15T10:42:15;1.80;99.90
2579;DHT22;1299;48.282;14.398;2023-02-15T10:45:00;1.50;99.90
2579;DHT22;1299;48.282;14.398;2023-02-15T10:47:48;1.50;99.90
2579;DHT22;1299;48.282;14.398;2023-02-15T10:50:30;1.50;99.90
2579;DHT22;1299;48.282;14.398;2023-02-15T10:53:17;1.60;99.90
2579;DHT22;1299;48.282;14.398;2023-02-15T10:55:53;1.50;99.90
2579;DHT22;1299;48.282;14.398;2023-02-15T10:58:31;1.50;99.90
2579;DHT22;1299;48.282;14.398;2023-02-15T11:01:10;1.60;99.90
2579;DHT22;1299;48.282;14.398;2023-02-15T11:06:36;1.90;99.90
2579;DHT22;1299;48.282;14.398;2023-02-15T11:09:10;2.10;99.90
2579;DHT22;1299;48.282;14.398;2023-02-15T11:11:46;2.20;99.90
2579;DHT22;1299;48.282;14.398;2023-02-15T11:14:18;2.30;99.90
2579;DHT22;1299;48.282;14.398;2023-02-15T11:16:52;2.50;99.90
2579;DHT22;1299;48.282;14.398;2023-02-15T11:19:26;2.30;99.90
2579;DHT22;1299;48.282;14.398;2023-02-15T11:22:01;2.50;99.90
2579;DHT22;1299;48.282;14.398;2023-02-15T11:24:31;2.70;99.90
2579;DHT22;1299;48.282;14.398;2023-02-15T11:27:04;2.50;99.90
2579;DHT22;1299;48.282;14.398;2023-02-15T11:29:36;2.70;99.90
2579;DHT22;1299;48.282;14.398;2023-02-15T11:32:17;2.90;99.90
2579;DHT22;1299;48.282;14.398;2023-02-15T11:34:51;3.10;99.90
2579;DHT22;1299;48.282;14.398;2023-02-15T11:37:33;3.30;99.90
2579;DHT22;1299;48.282;14.398;2023-02-15T11:40:06;3.20;99.90
2579;DHT22;1299;48.282;14.398;2023-02-15T11:42:43;3.30;99.90
2579;DHT22;1299;48.282;14.398;2023-02-15T11:45:20;3.10;99.90
2579;DHT22;1299;48.282;14.398;2023-02-15T11:47:48;3.20;99.90
2579;DHT22;1299;48.282;14.398;2023-02-15T11:50:21;3.10;99.90
2579;DHT22;1299;48.282;14.398;2023-02-15T11:52:49;3.20;99.90
2579;DHT22;1299;48.282;14.398;2023-02-15T11:55:21;3.50;99.90
2579;DHT22;1299;48.282;14.398;2023-02-15T11:57:53;3.20;99.90
2579;DHT22;1299;48.282;14.398;2023-02-15T12:00:27;3.10;99.90
2579;DHT22;1299;48.282;14.398;2023-02-15T12:03:09;2.90;99.90
2579;DHT22;1299;48.282;14.398;2023-02-15T12:05:42;2.90;99.90
2579;DHT22;1299;48.282;14.398;2023-02-15T12:08:20;3.10;99.90
2579;DHT22;1299;48.282;14.398;2023-02-15T12:10:58;3.00;99.90
2579;DHT22;1299;48.282;14.398;2023-02-15T12:13:27;3.20;99.90
2579;DHT22;1299;48.282;14.398;2023-02-15T12:15:57;3.20;99.90
2579;DHT22;1299;48.282;14.398;2023-02-15T12:18:34;2.90;99.90
2579;DHT22;1299;48.282;14.398;2023-02-15T12:21:07;3.10;99.90
2579;DHT22;1299;48.282;14.398;2023-02-15T12:23:42;2.90;99.90
2579;DHT22;1299;48.282;14.398;2023-02-15T12:26:13;3.00;99.90
2579;DHT22;1299;48.282;14.398;2023-02-15T12:28:42;2.70;99.90
2579;DHT22;1299;48.282;14.398;2023-02-15T12:31:21;2.50;99.90
2579;DHT22;1299;48.282;14.398;2023-02-15T12:33:52;2.50;99.90
2579;DHT22;1299;48.282;14.398;2023-02-15T12:36:24;2.40;99.90
2579;DHT22;1299;48.282;14.398;2023-02-15T12:39:14;2.20;99.90
2579;DHT22;1299;48.282;14.398;2023-02-15T12:41:45;2.30;99.90
2579;DHT22;1299;48.282;14.398;2023-02-15T12:44:17;2.30;99.90
2579;DHT22;1299;48.282;14.398;2023-02-15T12:46:57;2.70;99.90
2579;DHT22;1299;48.282;14.398;2023-02-15T12:49:26;2.60;99.90
2579;DHT22;1299;48.282;14.398;2023-02-15T12:51:57;2.40;99.90
2579;DHT22;1299;48.282;14.398;2023-02-15T12:54:36;2.50;99.90
2579;DHT22;1299;48.282;14.398;2023-02-15T12:57:27;2.80;99.90
2579;DHT22;1299;48.282;14.398;2023-02-15T12:59:57;3.00;99.90
2579;DHT22;1299;48.282;14.398;2023-02-15T13:02:28;3.00;99.90
2579;DHT22;1299;48.282;14.398;2023-02-15T13:05:03;3.10;99.90
2579;DHT22;1299;48.282;14.398;2023-02-15T13:07:33;2.80;99.90
2579;DHT22;1299;48.282;14.398;2023-02-15T13:10:01;2.80;99.90
2579;DHT22;1299;48.282;14.398;2023-02-15T13:12:30;2.90;99.90
2579;DHT22;1299;48.282;14.398;2023-02-15T13:14:59;3.00;99.90
2579;DHT22;1299;48.282;14.398;2023-02-15T13:17:30;3.30;99.90
2579;DHT22;1299;48.282;14.398;2023-02-15T13:20:05;3.20;99.90
2579;DHT22;1299;48.282;14.398;2023-02-15T13:22:39;2.60;99.90
2579;DHT22;1299;48.282;14.398;2023-02-15T13:25:17;2.60;99.90
2579;DHT22;1299;48.282;14.398;2023-02-15T13:27:50;2.50;99.90
2579;DHT22;1299;48.282;14.398;2023-02-15T13:30:23;2.40;99.90
2579;DHT22;1299;48.282;14.398;2023-02-15T13:32:55;2.70;99.90
2579;DHT22;1299;48.282;14.398;2023-02-15T13:35:29;2.50;99.90
2579;DHT22;1299;48.282;14.398;2023-02-15T13:38:21;2.40;99.90
2579;DHT22;1299;48.282;14.398;2023-02-15T13:40:55;2.60;99.90
2579;DHT22;1299;48.282;14.398;2023-02-15T13:43:35;2.90;99.90
2579;DHT22;1299;48.282;14.398;2023-02-15T13:46:18;3.00;99.90
2579;DHT22;1299;48.282;14.398;2023-02-15T13:48:56;2.70;99.90
2579;DHT22;1299;48.282;14.398;2023-02-15T13:51:34;2.80;99.90
2579;DHT22;1299;48.282;14.398;2023-02-15T13:54:20;2.90;99.90
2579;DHT22;1299;48.282;14.398;2023-02-15T13:57:00;2.90;99.90
2579;DHT22;1299;48.282;14.398;2023-02-15T13:59:46;3.10;99.90
2579;DHT22;1299;48.282;14.398;2023-02-15T14:02:30;3.30;99.90
2579;DHT22;1299;48.282;14.398;2023-02-15T14:05:14;3.20;99.90
2579;DHT22;1299;48.282;14.398;2023-02-15T14:07:54;2.90;99.90
2579;DHT22;1299;48.282;14.398;2023-02-15T14:10:42;3.00;99.90
2579;DHT22;1299;48.282;14.398;2023-02-15T14:16:30;2.90;99.90
2579;DHT22;1299;48.282;14.398;2023-02-15T14:19:10;2.70;99.90
2579;DHT22;1299;48.282;14.398;2023-02-15T14:21:47;2.50;99.90
2579;DHT22;1299;48.282;14.398;2023-02-15T14:24:27;2.60;99.90
2579;DHT22;1299;48.282;14.398;2023-02-15T14:27:04;2.50;99.90
2579;DHT22;1299;48.282;14.398;2023-02-15T14:29:46;2.40;99.90
2579;DHT22;1299;48.282;14.398;2023-02-15T14:32:25;2.50;99.90
2579;DHT22;1299;48.282;14.398;2023-02-15T14:34:56;2.50;99.90
2579;DHT22;1299;48.282;14.398;2023-02-15T14:37:35;2.30;99.90
2579;DHT22;1299;48.282;14.398;2023-02-15T14:40:19;2.10;99.90
2579;DHT22;1299;48.282;14.398;2023-02-15T14:43:18;2.20;99.90
2579;DHT22;1299;48.282;14.398;2023-02-15T14:46:10;2.10;99.90
2579;DHT22;1299;48.282;14.398;2023-02-15T14:48:43;2.30;99.90
2579;DHT22;1299;48.282;14.398;2023-02-15T14:57:25;2.20;99.90
2579;DHT22;1299;48.282;14.398;2023-02-15T14:59:59;2.30;99.90
2579;DHT22;1299;48.282;14.398;2023-02-15T15:02:41;2.10;99.90
2579;DHT22;1299;48.282;14.398;2023-02-15T15:05:14;2.10;99.90
2579;DHT22;1299;48.282;14.398;2023-02-15T15:07:46;2.10;99.90
2579;DHT22;1299;48.282;14.398;2023-02-15T15:10:39;2.10;99.90
2579;DHT22;1299;48.282;14.398;2023-02-15T15:13:39;2.10;99.90
2579;DHT22;1299;48.282;14.398;2023-02-15T15:16:46;2.00;99.90
2579;DHT22;1299;48.282;14.398;2023-02-15T15:22:18;2.20;99.90
2579;DHT22;1299;48.282;14.398;2023-02-15T15:24:51;2.40;99.90
2579;DHT22;1299;48.282;14.398;2023-02-15T15:27:47;2.70;99.90
2579;DHT22;1299;48.282;14.398;2023-02-15T15:30:48;2.40;99.90
2579;DHT22;1299;48.282;14.398;2023-02-15T15:42:50;2.10;99.90
2579;DHT22;1299;48.282;14.398;2023-02-15T15:45:49;2.20;99.90
2579;DHT22;1299;48.282;14.398;2023-02-15T15:48:31;2.00;99.90
2579;DHT22;1299;48.282;14.398;2023-02-15T15:51:03;2.00;99.90
2579;DHT22;1299;48.282;14.398;2023-02-15T15:53:38;2.00;99.90
2579;DHT22;1299;48.282;14.398;2023-02-15T15:56:13;1.70;99.90
2579;DHT22;1299;48.282;14.398;2023-02-15T15:58:46;1.80;99.90
2579;DHT22;1299;48.282;14.398;2023-02-15T16:01:15;1.60;99.90
2579;DHT22;1299;48.282;14.398;2023-02-15T16:03:53;1.50;99.90
2579;DHT22;1299;48.282;14.398;2023-02-15T16:06:31;1.50;99.90
2579;DHT22;1299;48.282;14.398;2023-02-15T16:09:16;1.60;99.90
2579;DHT22;1299;48.282;14.398;2023-02-15T16:11:47;1.60;99.90
2579;DHT22;1299;48.282;14.398;2023-02-15T16:14:21;1.80;99.90
2579;DHT22;1299;48.282;14.398;2023-02-15T16:16:54;1.90;99.90
2579;DHT22;1299;48.282;14.398;2023-02-15T16:19:26;1.90;99.90
2579;DHT22;1299;48.282;14.398;2023-02-15T16:21:58;1.80;99.90
2579;DHT22;1299;48.282;14.398;2023-02-15T16:24:37;1.70;99.90
2579;DHT22;1299;48.282;14.398;2023-02-15T16:27:36;1.70;99.90
2579;DHT22;1299;48.282;14.398;2023-02-15T16:30:24;1.80;99.90
2579;DHT22;1299;48.282;14.398;2023-02-15T16:35:22;1.70;99.90
2579;DHT22;1299;48.282;14.398;2023-02-15T16:37:51;1.70;99.90
2579;DHT22;1299;48.282;14.398;2023-02-15T16:40:45;1.80;99.90
2579;DHT22;1299;48.282;14.398;2023-02-15T16:43:18;1.60;99.90
2579;DHT22;1299;48.282;14.398;2023-02-15T16:45:47;1.50;99.90
2579;DHT22;1299;48.282;14.398;2023-02-15T16:48:19;1.40;99.90
2579;DHT22;1299;48.282;14.398;2023-02-15T16:50:52;1.30;99.90
2579;DHT22;1299;48.282;14.398;2023-02-15T16:53:24;1.30;99.90
2579;DHT22;1299;48.282;14.398;2023-02-15T16:55:55;1.20;99.90
2579;DHT22;1299;48.282;14.398;2023-02-15T16:58:30;1.30;99.90
2579;DHT22;1299;48.282;14.398;2023-02-15T17:01:00;1.60;99.90
2579;DHT22;1299;48.282;14.398;2023-02-15T17:03:29;1.70;99.90
2579;DHT22;1299;48.282;14.398;2023-02-15T17:06:00;1.70;99.90
2579;DHT22;1299;48.282;14.398;2023-02-15T17:08:32;1.70;99.90
2579;DHT22;1299;48.282;14.398;2023-02-15T17:11:12;1.90;99.90
2579;DHT22;1299;48.282;14.398;2023-02-15T17:14:11;1.80;99.90
2579;DHT22;1299;48.282;14.398;2023-02-15T17:16:42;1.70;99.90
2579;DHT22;1299;48.282;14.398;2023-02-15T17:19:17;1.50;99.90
2579;DHT22;1299;48.282;14.398;2023-02-15T17:21:52;1.50;99.90
2579;DHT22;1299;48.282;14.398;2023-02-15T17:24:31;1.80;99.90
2579;DHT22;1299;48.282;14.398;2023-02-15T17:27:03;1.60;99.90